createdAt,value
2023-04-15T00:02:18.357Z,94546.25
2023-04-15T00:04:46.842Z,94536.41
2023-04-15T00:07:14.749Z,94539.38
2023-04-15T00:09:42.977Z,94539.84
2023-04-15T00:12:10.745Z,94539.91
2023-04-15T00:14:38.685Z,94543.19
2023-04-15T00:17:06.385Z,94539.47
2023-04-15T00:19:35.582Z,94546.25
2023-04-15T00:22:03.152Z,94544.28
2023-04-15T00:24:31.350Z,94547.25
2023-04-15T00:26:59.883Z,94552.28
2023-04-15T00:29:27.658Z,94540.16
2023-04-15T00:31:55.260Z,94543.56
2023-04-15T00:34:23.233Z,94544.44
2023-04-15T00:36:52.490Z,94541.19
2023-04-15T00:39:20.656Z,94542.00
2023-04-15T00:41:49.064Z,94529.19
2023-04-15T00:44:18.797Z,94541.75
2023-04-15T00:46:47.818Z,94536.44
2023-04-15T00:49:15.446Z,94540.16
2023-04-15T00:51:43.042Z,94543.53
2023-04-15T00:54:12.208Z,94541.41
2023-04-15T00:56:42.137Z,94537.63
2023-04-15T00:59:10.154Z,94537.94
2023-04-15T01:01:38.542Z,94540.19
2023-04-15T01:04:06.945Z,94537.56
2023-04-15T01:06:35.073Z,94540.38
2023-04-15T01:09:03.342Z,94542.22
2023-04-15T01:11:34.240Z,94532.31
2023-04-15T01:14:02.424Z,94539.03
2023-04-15T01:16:30.269Z,94537.69
2023-04-15T01:18:58.384Z,94535.09
2023-04-15T01:21:26.995Z,94539.25
2023-04-15T01:23:57.072Z,94538.34
2023-04-15T01:26:27.521Z,94541.06
2023-04-15T01:28:56.311Z,94541.50
2023-04-15T01:31:25.034Z,94538.78
2023-04-15T01:33:52.983Z,94535.44
2023-04-15T01:36:21.022Z,94524.50
2023-04-15T01:38:48.833Z,94535.91
2023-04-15T01:41:16.416Z,94530.75
2023-04-15T01:43:46.653Z,94535.81
2023-04-15T01:46:14.432Z,94529.97
2023-04-15T01:48:42.140Z,94530.97
2023-04-15T01:51:09.732Z,94534.00
2023-04-15T01:53:37.337Z,94532.47
2023-04-15T01:56:05.602Z,94535.09
2023-04-15T01:58:33.237Z,94532.66
2023-04-15T02:01:02.985Z,94522.03
2023-04-15T02:03:32.966Z,94516.69
2023-04-15T02:06:00.889Z,94523.91
2023-04-15T02:08:29.707Z,94523.09
2023-04-15T02:10:57.417Z,94517.31
2023-04-15T02:13:26.165Z,94519.56
2023-04-15T02:15:56.197Z,94520.28
2023-04-15T02:18:25.130Z,94516.69
2023-04-15T02:20:53.244Z,94517.22
2023-04-15T02:23:20.872Z,94525.06
2023-04-15T02:25:53.296Z,94522.66
2023-04-15T02:28:21.800Z,94513.28
2023-04-15T02:30:50.914Z,94516.66
2023-04-15T02:33:18.630Z,94512.34
2023-04-15T02:35:47.542Z,94517.03
2023-04-15T02:38:17.954Z,94520.66
2023-04-15T02:40:46.127Z,94520.03
2023-04-15T02:43:13.887Z,94519.47
2023-04-15T02:45:43.438Z,94523.53
2023-04-15T02:48:11.522Z,94530.00
2023-04-15T02:50:40.719Z,94527.97
2023-04-15T02:53:11.828Z,94525.06
2023-04-15T02:55:39.731Z,94526.78
2023-04-15T02:58:07.708Z,94524.88
2023-04-15T03:00:35.577Z,94524.00
2023-04-15T03:03:05.307Z,94528.78
2023-04-15T03:05:33.497Z,94524.81
2023-04-15T03:08:04.362Z,94530.22
2023-04-15T03:10:33.395Z,94533.00
2023-04-15T03:13:02.700Z,94528.06
2023-04-15T03:15:30.724Z,94525.72
2023-04-15T03:17:58.604Z,94532.03
2023-04-15T03:20:26.329Z,94524.69
2023-04-15T03:22:54.518Z,94526.44
2023-04-15T03:25:24.227Z,94534.91
2023-04-15T03:27:53.530Z,94531.38
2023-04-15T03:30:21.469Z,94527.25
2023-04-15T03:32:49.289Z,94526.44
2023-04-15T03:35:17.122Z,94531.06
2023-04-15T03:37:44.949Z,94525.28
2023-04-15T03:40:13.467Z,94527.22
2023-04-15T03:42:41.176Z,94529.25
2023-04-15T03:45:11.078Z,94525.22
2023-04-15T03:47:38.860Z,94522.41
2023-04-15T03:50:07.495Z,94525.47
2023-04-15T03:52:35.534Z,94519.06
2023-04-15T03:55:03.176Z,94523.34
2023-04-15T03:57:31.307Z,94519.81
2023-04-15T03:59:58.882Z,94518.09
2023-04-15T04:02:28.433Z,94522.06
2023-04-15T04:04:56.174Z,94524.31
2023-04-15T04:07:25.460Z,94518.09
2023-04-15T04:09:53.076Z,94519.50
2023-04-15T04:12:21.040Z,94521.59
2023-04-15T04:14:48.609Z,94520.56
2023-04-15T04:17:16.443Z,94520.63
2023-04-15T04:19:45.348Z,94523.19
2023-04-15T04:22:13.057Z,94532.00
2023-04-15T04:24:40.683Z,94528.34
2023-04-15T04:27:08.512Z,94529.91
2023-04-15T04:29:36.064Z,94526.09
2023-04-15T04:32:04.015Z,94526.34
2023-04-15T04:34:32.479Z,94539.50
2023-04-15T04:37:01.616Z,94537.53
2023-04-15T04:39:29.180Z,94540.78
2023-04-15T04:41:57.505Z,94543.41
2023-04-15T04:44:25.181Z,94551.00
2023-04-15T04:46:54.084Z,94541.59
2023-04-15T04:49:21.666Z,94540.53
2023-04-15T04:51:49.423Z,94548.25
2023-04-15T04:54:18.643Z,94543.16
2023-04-15T04:56:46.309Z,94548.47
2023-04-15T04:59:14.165Z,94544.56
2023-04-15T05:01:41.931Z,94550.78
2023-04-15T05:04:09.656Z,94550.28
2023-04-15T05:06:37.465Z,94545.19
2023-04-15T05:09:05.356Z,94549.09
2023-04-15T05:11:34.429Z,94534.66
2023-04-15T05:14:02.479Z,94546.13
2023-04-15T05:16:30.102Z,94548.81
2023-04-15T05:18:57.987Z,94547.66
2023-04-15T05:21:25.900Z,94538.59
2023-04-15T05:23:53.634Z,94547.69
2023-04-15T05:26:21.699Z,94540.47
2023-04-15T05:28:50.913Z,94546.38
2023-04-15T05:31:18.537Z,94544.13
2023-04-15T05:33:46.450Z,94548.75
2023-04-15T05:36:14.007Z,94556.91
2023-04-15T05:38:42.156Z,94549.97
2023-04-15T05:41:09.977Z,94549.91
2023-04-15T05:43:37.777Z,94554.50
2023-04-15T05:46:06.779Z,94556.22
2023-04-15T05:48:34.601Z,94559.91
2023-04-15T05:51:02.344Z,94564.69
2023-04-15T05:53:30.039Z,94565.97
2023-04-15T05:55:57.914Z,94555.88
2023-04-15T05:58:25.826Z,94557.47
2023-04-15T06:00:53.517Z,94555.63
2023-04-15T06:03:23.135Z,94558.25
2023-04-15T06:05:50.844Z,94558.69
2023-04-15T06:08:19.031Z,94565.38
2023-04-15T06:10:46.699Z,94558.19
2023-04-15T06:13:14.399Z,94561.03
2023-04-15T06:15:42.212Z,94565.59
2023-04-15T06:18:10.090Z,94566.78
2023-04-15T06:20:39.466Z,94563.53
2023-04-15T06:23:07.092Z,94570.75
2023-04-15T06:25:34.657Z,94561.56
2023-04-15T06:28:02.382Z,94559.53
2023-04-15T06:30:30.248Z,94570.03
2023-04-15T06:32:58.041Z,94565.78
2023-04-15T06:35:26.093Z,94568.41
2023-04-15T06:37:54.972Z,94577.16
2023-04-15T06:40:22.675Z,94569.53
2023-04-15T06:42:50.387Z,94575.28
2023-04-15T06:45:18.222Z,94569.53
2023-04-15T06:47:45.817Z,94578.19
2023-04-15T06:50:13.621Z,94574.91
2023-04-15T06:52:41.488Z,94579.75
2023-04-15T06:55:11.338Z,94572.22
2023-04-15T06:57:39.005Z,94575.13
2023-04-15T07:00:07.738Z,94573.19
2023-04-15T07:02:35.564Z,94575.84
2023-04-15T07:05:03.392Z,94572.56
2023-04-15T07:07:31.122Z,94573.16
2023-04-15T07:09:58.803Z,94570.94
2023-04-15T07:12:27.780Z,94565.19
2023-04-15T07:14:55.352Z,94567.66
2023-04-15T07:17:23.089Z,94565.00
2023-04-15T07:19:50.723Z,94571.63
2023-04-15T07:22:18.291Z,94564.19
2023-04-15T07:24:46.001Z,94559.44
2023-04-15T07:27:13.587Z,94566.81
2023-04-15T07:29:42.842Z,94559.34
2023-04-15T07:32:11.287Z,94556.41
2023-04-15T07:34:39.090Z,94558.41
2023-04-15T07:37:06.635Z,94551.63
2023-04-15T07:39:34.230Z,94560.81
2023-04-15T07:42:02.056Z,94564.78
2023-04-15T07:44:29.772Z,94563.28
2023-04-15T07:46:58.759Z,94552.41
2023-04-15T07:49:26.623Z,94560.88
2023-04-15T07:51:54.829Z,94554.78
2023-04-15T07:54:22.552Z,94554.84
2023-04-15T07:56:50.482Z,94553.03
2023-04-15T07:59:19.044Z,94551.03
2023-04-15T08:01:46.653Z,94547.59
2023-04-15T08:04:15.981Z,94549.00
2023-04-15T08:06:44.005Z,94563.41
2023-04-15T08:09:11.838Z,94558.97
2023-04-15T08:11:39.442Z,94558.56
2023-04-15T08:14:07.063Z,94552.50
2023-04-15T08:16:35.268Z,94564.03
2023-04-15T08:19:03.907Z,94557.72
2023-04-15T08:21:33.341Z,94562.16
2023-04-15T08:24:01.700Z,94550.53
2023-04-15T08:26:29.697Z,94561.78
2023-04-15T08:28:57.587Z,94560.16
2023-04-15T08:31:29.763Z,94562.09
2023-04-15T08:33:58.265Z,94563.66
2023-04-15T08:36:27.410Z,94552.50
2023-04-15T08:38:56.638Z,94562.09
2023-04-15T08:41:27.326Z,94550.31
2023-04-15T08:43:58.710Z,94552.81
2023-04-15T08:46:26.992Z,94554.56
2023-04-15T08:48:58.162Z,94540.56
2023-04-15T08:51:27.775Z,94547.03
2023-04-15T08:53:57.007Z,94553.75
2023-04-15T08:56:27.093Z,94549.53
2023-04-15T08:58:55.303Z,94542.75
2023-04-15T09:01:23.955Z,94543.84
2023-04-15T09:03:52.014Z,94547.09
2023-04-15T09:06:20.184Z,94548.84
2023-04-15T09:08:47.767Z,94543.34
2023-04-15T09:11:20.013Z,94546.50
2023-04-15T09:13:48.200Z,94545.16
2023-04-15T09:16:16.089Z,94541.72
2023-04-15T09:18:44.236Z,94541.50
2023-04-15T09:21:13.426Z,94549.44
2023-04-15T09:23:43.204Z,94548.97
2023-04-15T09:26:10.902Z,94549.69
2023-04-15T09:28:43.956Z,94558.50
2023-04-15T09:31:12.028Z,94560.00
2023-04-15T09:33:57.094Z,94570.66
2023-04-15T09:36:25.229Z,94567.56
2023-04-15T09:38:57.067Z,94569.19
2023-04-15T09:41:25.468Z,94566.53
2023-04-15T09:43:54.532Z,94571.59
2023-04-15T09:46:22.305Z,94559.81
2023-04-15T09:49:08.696Z,94561.09
2023-04-15T09:51:37.402Z,94562.44
2023-04-15T09:54:05.537Z,94562.63
2023-04-15T09:56:36.297Z,94567.03
2023-04-15T09:59:06.450Z,94579.59
2023-04-15T10:01:34.501Z,94572.75
2023-04-15T10:04:04.671Z,94577.47
2023-04-15T10:06:32.981Z,94576.50
2023-04-15T10:09:01.652Z,94579.00
2023-04-15T10:11:31.779Z,94581.09
2023-04-15T10:14:00.084Z,94585.97
2023-04-15T10:16:29.950Z,94578.34
2023-04-15T10:18:59.046Z,94577.25
2023-04-15T10:21:26.694Z,94580.66
2023-04-15T10:23:54.630Z,94588.47
2023-04-15T10:26:22.871Z,94583.00
2023-04-15T10:28:50.682Z,94591.44
2023-04-15T10:31:20.200Z,94585.22
2023-04-15T10:33:50.223Z,94579.97
2023-04-15T10:36:18.178Z,94578.25
2023-04-15T10:38:46.773Z,94575.69
2023-04-15T10:41:21.618Z,94583.31
2023-04-15T10:43:51.528Z,94576.03
2023-04-15T10:46:24.598Z,94581.50
2023-04-15T10:48:54.966Z,94578.03
2023-04-15T10:51:31.068Z,94580.44
2023-04-15T10:53:59.894Z,94575.31
2023-04-15T10:56:29.626Z,94583.00
2023-04-15T10:58:59.505Z,94584.75
2023-04-15T11:01:51.546Z,94582.75
2023-04-15T11:07:43.412Z,94610.16
2023-04-15T11:10:54.095Z,94624.06
2023-04-15T11:13:25.061Z,94638.63
2023-04-15T11:15:56.683Z,94644.19
2023-04-15T11:18:28.106Z,94638.03
2023-04-15T11:20:57.492Z,94644.53
2023-04-15T11:23:35.133Z,94639.75
2023-04-15T11:26:05.582Z,94636.41
2023-04-15T11:28:34.272Z,94629.50
2023-04-15T11:31:08.464Z,94631.41
2023-04-15T11:33:36.246Z,94627.88
2023-04-15T11:36:04.506Z,94632.22
2023-04-15T11:38:35.520Z,94627.69
2023-04-15T11:41:03.210Z,94632.97
2023-04-15T11:43:35.322Z,94636.06
2023-04-15T11:46:04.227Z,94627.59
2023-04-15T11:48:33.608Z,94628.56
2023-04-15T11:51:02.735Z,94622.34
2023-04-15T11:53:44.510Z,94635.38
2023-04-15T11:56:18.636Z,94633.84
2023-04-15T11:58:47.201Z,94634.38
2023-04-15T12:01:15.173Z,94634.97
2023-04-15T12:03:44.606Z,94632.03
2023-04-15T12:06:19.931Z,94636.34
2023-04-15T12:09:05.048Z,94639.44
2023-04-15T12:11:44.278Z,94636.38
2023-04-15T12:14:22.654Z,94636.72
2023-04-15T12:16:52.488Z,94634.72
2023-04-15T12:19:25.884Z,94632.88
2023-04-15T12:22:00.241Z,94640.53
2023-04-15T12:24:32.993Z,94641.91
2023-04-15T12:27:03.934Z,94636.22
2023-04-15T12:29:32.603Z,94641.16
2023-04-15T12:32:06.764Z,94638.50
2023-04-15T12:34:36.731Z,94646.84
2023-04-15T12:37:06.083Z,94658.38
2023-04-15T12:39:38.023Z,94656.53
2023-04-15T12:42:06.223Z,94647.13
2023-04-15T12:44:34.542Z,94655.22
2023-04-15T12:47:02.300Z,94656.44
2023-04-15T12:49:30.127Z,94659.84
2023-04-15T12:52:00.064Z,94657.53
2023-04-15T12:54:28.005Z,94667.84
2023-04-15T12:56:57.941Z,94670.97
2023-04-15T12:59:25.844Z,94676.22
2023-04-15T13:01:54.471Z,94678.72
2023-04-15T13:04:23.005Z,94681.94
2023-04-15T13:06:50.829Z,94690.38
2023-04-15T13:09:18.532Z,94686.25
2023-04-15T13:11:46.292Z,94692.13
2023-04-15T13:14:15.776Z,94696.41
2023-04-15T13:16:43.382Z,94701.09
2023-04-15T13:19:11.178Z,94711.81
2023-04-15T13:21:38.812Z,94704.47
2023-04-15T13:24:07.172Z,94711.56
2023-04-15T13:26:35.146Z,94720.72
2023-04-15T13:29:02.873Z,94716.84
2023-04-15T13:31:31.963Z,94724.22
2023-04-15T13:33:59.732Z,94724.94
2023-04-15T13:36:27.469Z,94732.59
2023-04-15T13:38:55.673Z,94720.72
2023-04-15T13:41:23.255Z,94734.28
2023-04-15T13:43:51.170Z,94727.81
2023-04-15T13:46:18.896Z,94728.50
2023-04-15T13:48:48.598Z,94730.63
2023-04-15T13:51:16.171Z,94732.25
2023-04-15T13:53:43.876Z,94729.72
2023-04-15T13:56:11.499Z,94730.06
2023-04-15T13:58:39.785Z,94736.50
2023-04-15T14:01:07.730Z,94740.19
2023-04-15T14:03:36.634Z,94737.78
2023-04-15T14:06:06.770Z,94735.47
2023-04-15T14:08:34.744Z,94742.09
2023-04-15T14:11:02.359Z,94749.19
2023-04-15T14:13:30.119Z,94743.75
2023-04-15T14:15:58.378Z,94753.47
2023-04-15T14:18:26.607Z,94750.13
2023-04-15T14:20:54.292Z,94751.88
2023-04-15T14:23:23.423Z,94755.28
2023-04-15T14:25:51.597Z,94762.03
2023-04-15T14:28:19.326Z,94770.56
2023-04-15T14:30:47.375Z,94772.13
2023-04-15T14:33:15.247Z,94771.13
2023-04-15T14:35:42.914Z,94780.03
2023-04-15T14:38:11.631Z,94777.03
2023-04-15T14:40:42.217Z,94782.94
2023-04-15T14:43:10.189Z,94792.00
2023-04-15T14:45:40.687Z,94797.50
2023-04-15T14:48:12.650Z,94794.84
2023-04-15T14:50:40.893Z,94797.22
2023-04-15T14:53:08.712Z,94806.91
2023-04-15T14:55:36.285Z,94807.25
2023-04-15T14:58:06.109Z,94812.50
2023-04-15T15:00:34.004Z,94819.13
2023-04-15T15:03:01.884Z,94823.91
2023-04-15T15:05:29.747Z,94830.66
2023-04-15T15:07:57.559Z,94833.53
2023-04-15T15:10:32.872Z,94840.53
2023-04-15T15:13:14.799Z,94838.50
2023-04-15T15:15:42.674Z,94843.59
2023-04-15T15:18:11.263Z,94853.69
2023-04-15T15:20:39.164Z,94860.00
2023-04-15T15:23:06.772Z,94874.88
2023-04-15T15:25:34.404Z,94875.75
2023-04-15T15:28:01.979Z,94890.53
2023-04-15T15:30:31.479Z,94894.78
2023-04-15T15:32:59.188Z,94887.19
2023-04-15T15:35:27.028Z,94900.56
2023-04-15T15:37:54.942Z,94903.97
2023-04-15T15:40:22.854Z,94903.63
2023-04-15T15:42:50.956Z,94901.81
2023-04-15T15:45:19.040Z,94906.41
2023-04-15T15:47:48.812Z,94916.72
2023-04-15T15:50:16.604Z,94915.06
2023-04-15T15:52:44.190Z,94912.31
2023-04-15T15:55:11.946Z,94922.81
2023-04-15T15:57:39.500Z,94926.19
2023-04-15T16:00:12.033Z,94920.38
2023-04-15T16:03:05.165Z,94927.09
2023-04-15T16:05:29.753Z,94922.50
2023-04-15T16:07:57.379Z,94928.00
2023-04-15T16:10:25.434Z,94928.88
2023-04-15T16:12:53.064Z,94940.38
2023-04-15T16:15:21.241Z,94939.28
2023-04-15T16:17:48.867Z,94942.72
2023-04-15T16:20:17.184Z,94947.22
2023-04-15T16:22:46.320Z,94941.69
2023-04-15T16:25:14.068Z,94955.63
2023-04-15T16:27:57.122Z,94951.69
2023-04-15T16:30:27.173Z,94950.44
2023-04-15T16:32:54.866Z,94957.16
2023-04-15T16:35:22.516Z,94946.91
2023-04-15T16:37:51.458Z,94949.00
2023-04-15T16:40:19.322Z,94951.78
2023-04-15T16:42:46.922Z,94955.63
2023-04-15T16:45:14.757Z,94953.31
2023-04-15T16:47:42.553Z,94947.44
2023-04-15T16:50:11.409Z,94956.22
2023-04-15T16:52:39.040Z,94962.91
2023-04-15T16:55:08.593Z,94959.19
2023-04-15T16:57:54.103Z,94961.56
2023-04-15T17:00:23.986Z,94959.28
2023-04-15T17:02:51.697Z,94963.81
2023-04-15T17:05:19.779Z,94967.59
2023-04-15T17:07:47.335Z,94965.81
2023-04-15T17:10:16.427Z,94965.81
2023-04-15T17:12:44.068Z,94969.69
2023-04-15T17:15:11.699Z,94976.59
2023-04-15T17:17:39.345Z,94970.56
2023-04-15T17:20:08.005Z,94975.81
2023-04-15T17:22:35.700Z,94981.59
2023-04-15T17:25:04.557Z,94989.56
2023-04-15T17:27:33.581Z,94999.25
2023-04-15T17:30:01.318Z,95006.66
2023-04-15T17:32:31.931Z,95014.63
2023-04-15T17:34:59.693Z,95026.84
2023-04-15T17:37:27.672Z,95021.16
2023-04-15T17:39:55.350Z,95024.31
2023-04-15T17:42:23.291Z,95030.81
2023-04-15T17:44:52.180Z,95037.94
2023-04-15T17:47:20.420Z,95039.47
2023-04-15T17:49:48.106Z,95027.63
2023-04-15T17:52:15.847Z,95040.88
2023-04-15T17:54:43.466Z,95050.53
2023-04-15T17:57:11.368Z,95060.78
2023-04-15T17:59:43.743Z,95067.53
2023-04-15T18:02:12.952Z,95069.97
2023-04-15T18:04:40.671Z,95077.16
2023-04-15T18:07:08.726Z,95069.91
2023-04-15T18:09:36.632Z,95088.56
2023-04-15T18:12:04.605Z,95092.47
2023-04-15T18:14:34.939Z,95085.72
2023-04-15T18:17:03.768Z,95090.31
2023-04-15T18:19:32.868Z,95099.75
2023-04-15T18:22:00.892Z,95095.19
2023-04-15T18:24:28.694Z,95101.22
2023-04-15T18:26:56.679Z,95111.72
2023-04-15T18:29:25.216Z,95112.16
2023-04-15T18:31:53.661Z,95117.22
2023-04-15T18:34:21.322Z,95119.69
2023-04-15T18:36:50.427Z,95115.78
2023-04-15T18:39:18.083Z,95122.94
2023-04-15T18:41:45.892Z,95120.38
2023-04-15T18:44:13.494Z,95140.78
2023-04-15T18:46:41.320Z,95136.50
2023-04-15T18:49:08.907Z,95141.63
2023-04-15T18:51:37.061Z,95144.47
2023-04-15T18:54:06.156Z,95145.81
2023-04-15T18:56:33.880Z,95156.88
2023-04-15T18:59:18.457Z,95163.16
2023-04-15T19:01:49.803Z,95163.16
2023-04-15T19:04:17.421Z,95174.53
2023-04-15T19:06:45.042Z,95177.00
2023-04-15T19:09:13.982Z,95176.47
2023-04-15T19:11:41.693Z,95185.22
2023-04-15T19:14:09.314Z,95178.22
2023-04-15T19:16:37.218Z,95188.75
2023-04-15T19:19:06.479Z,95193.00
2023-04-15T19:21:34.558Z,95194.47
2023-04-15T19:24:02.915Z,95203.47
2023-04-15T19:26:31.925Z,95209.41
2023-04-15T19:28:59.746Z,95207.72
2023-04-15T19:31:27.348Z,95211.91
2023-04-15T19:33:55.057Z,95215.97
2023-04-15T19:36:22.659Z,95218.31
2023-04-15T19:38:50.408Z,95213.78
2023-04-15T19:41:18.068Z,95225.41
2023-04-15T19:43:47.146Z,95219.09
2023-04-15T19:46:15.075Z,95217.78
2023-04-15T19:48:42.977Z,95222.03
2023-04-15T19:51:10.751Z,95217.41
2023-04-15T19:53:38.397Z,95216.59
2023-04-15T19:56:06.427Z,95220.25
2023-04-15T19:58:34.298Z,95223.84
2023-04-15T20:01:03.592Z,95221.63
2023-04-15T20:03:32.076Z,95233.56
2023-04-15T20:05:59.876Z,95220.41
2023-04-15T20:08:27.865Z,95224.06
2023-04-15T20:10:55.610Z,95227.38
2023-04-15T20:13:23.468Z,95241.31
2023-04-15T20:15:51.183Z,95239.00
2023-04-15T20:18:20.168Z,95235.59
2023-04-15T20:20:48.190Z,95242.78
2023-04-15T20:23:16.112Z,95242.00
2023-04-15T20:25:43.740Z,95238.91
2023-04-15T20:28:11.708Z,95240.50
2023-04-15T20:30:39.735Z,95242.47
2023-04-15T20:33:08.118Z,95248.84
2023-04-15T20:35:37.388Z,95237.56
2023-04-15T20:38:05.792Z,95239.84
2023-04-15T20:40:33.744Z,95245.44
2023-04-15T20:43:01.491Z,95235.94
2023-04-15T20:45:29.278Z,95247.06
2023-04-15T20:47:57.077Z,95238.81
2023-04-15T20:50:24.662Z,95255.38
2023-04-15T20:52:53.848Z,95253.25
2023-04-15T20:55:21.523Z,95254.53
2023-04-15T20:57:49.391Z,95260.09
2023-04-15T21:00:17.199Z,95265.38
2023-04-15T21:02:45.128Z,95265.38
2023-04-15T21:05:13.038Z,95271.91
2023-04-15T21:07:41.231Z,95280.94
2023-04-15T21:10:10.874Z,95277.75
2023-04-15T21:12:40.758Z,95274.81
2023-04-15T21:15:09.420Z,95284.31
2023-04-15T21:17:37.129Z,95283.63
2023-04-15T21:20:05.307Z,95281.44
2023-04-15T21:22:32.916Z,95293.78
2023-04-15T21:25:00.601Z,95295.03
2023-04-15T21:27:29.524Z,95301.28
2023-04-15T21:29:57.369Z,95298.66
2023-04-15T21:32:25.007Z,95300.66
2023-04-15T21:34:52.721Z,95301.56
2023-04-15T21:37:20.304Z,95303.91
2023-04-15T21:39:48.129Z,95295.09
2023-04-15T21:42:15.746Z,95301.28
2023-04-15T21:44:44.836Z,95306.22
2023-04-15T21:47:12.615Z,95302.13
2023-04-15T21:49:40.711Z,95300.31
2023-04-15T21:52:08.302Z,95304.25
2023-04-15T21:54:37.955Z,95305.56
2023-04-15T21:57:05.560Z,95306.22
2023-04-15T21:59:33.361Z,95306.75
2023-04-15T22:02:02.361Z,95304.63
2023-04-15T22:04:30.295Z,95309.22
2023-04-15T22:07:01.571Z,95307.59
2023-04-15T22:09:29.263Z,95309.66
2023-04-15T22:11:57.562Z,95320.31
2023-04-15T22:14:25.259Z,95316.88
2023-04-15T22:16:53.050Z,95313.63
2023-04-15T22:19:22.183Z,95322.44
2023-04-15T22:21:50.968Z,95312.56
2023-04-15T22:24:39.017Z,95309.66
2023-04-15T22:27:06.718Z,95321.59
2023-04-15T22:29:34.903Z,95317.97
2023-04-15T22:32:02.495Z,95326.19
2023-04-15T22:34:31.744Z,95332.25
2023-04-15T22:36:59.343Z,95329.78
2023-04-15T22:39:27.260Z,95336.00
2023-04-15T22:41:54.822Z,95339.63
2023-04-15T22:44:22.656Z,95346.22
2023-04-15T22:46:51.712Z,95338.66
2023-04-15T22:49:19.594Z,95339.13
2023-04-15T22:51:48.815Z,95339.13
2023-04-15T22:54:16.446Z,95336.34
2023-04-15T22:56:44.291Z,95344.25
2023-04-15T22:59:11.887Z,95348.19
2023-04-15T23:01:39.727Z,95351.13
2023-04-15T23:04:09.781Z,95341.28
2023-04-15T23:06:56.169Z,95343.59
2023-04-15T23:09:23.850Z,95344.38
2023-04-15T23:11:51.749Z,95342.59
2023-04-15T23:14:19.322Z,95354.09
2023-04-15T23:16:46.905Z,95352.47
2023-04-15T23:19:14.559Z,95355.09
2023-04-15T23:21:42.213Z,95360.34
2023-04-15T23:24:11.145Z,95348.56
2023-04-15T23:26:38.981Z,95354.44
2023-04-15T23:29:07.316Z,95353.97
2023-04-15T23:31:35.173Z,95349.84
2023-04-15T23:34:03.933Z,95357.72
2023-04-15T23:36:32.025Z,95360.34
2023-04-15T23:38:59.659Z,95358.69
2023-04-15T23:41:29.109Z,95360.34
2023-04-15T23:43:56.680Z,95362.31
2023-04-15T23:46:24.407Z,95362.63
2023-04-15T23:48:51.996Z,95365.94
2023-04-15T23:51:19.692Z,95363.13
2023-04-15T23:53:47.280Z,95368.03
2023-04-15T23:56:15.079Z,95366.25
2023-04-15T23:58:44.013Z,95372.56
